createdAt,value
2022-12-17T00:00:59.213Z,710.05
2022-12-17T00:06:19.884Z,705.20
2022-12-17T00:11:40.237Z,701.40
2022-12-17T00:17:00.426Z,714.38
2022-12-17T00:22:20.804Z,710.10
2022-12-17T00:27:41.292Z,705.58
2022-12-17T00:33:01.863Z,710.10
2022-12-17T00:38:22.400Z,707.45
2022-12-17T00:43:42.971Z,709.17
2022-12-17T00:49:03.919Z,713.03
2022-12-17T00:54:24.143Z,700.47
2022-12-17T00:59:44.647Z,701.10
2022-12-17T01:05:05.071Z,714.50
2022-12-17T01:10:25.541Z,701.83
2022-12-17T01:15:46.011Z,703.83
2022-12-17T01:21:06.141Z,705.10
2022-12-17T01:26:26.707Z,701.13
2022-12-17T01:31:47.132Z,702.05
2022-12-17T01:37:07.717Z,705.00
2022-12-17T01:42:31.594Z,706.72
2022-12-17T01:48:03.795Z,704.55
2022-12-17T01:53:25.538Z,703.97
2022-12-17T01:58:46.049Z,710.17
2022-12-17T02:04:06.580Z,703.08
2022-12-17T02:09:52.543Z,699.42
2022-12-17T02:15:25.211Z,708.42
2022-12-17T02:20:48.717Z,707.05
2022-12-17T02:26:13.912Z,706.05
2022-12-17T02:31:35.301Z,709.08
2022-12-17T02:36:56.098Z,702.97
2022-12-17T02:42:27.133Z,710.53
2022-12-17T02:47:48.354Z,704.58
2022-12-17T02:53:09.137Z,709.65
2022-12-17T02:58:29.518Z,711.05
2022-12-17T03:03:50.512Z,698.85
2022-12-17T03:09:11.416Z,698.25
2022-12-17T03:14:31.910Z,699.50
2022-12-17T03:19:57.816Z,696.88
2022-12-17T03:25:18.238Z,703.40
2022-12-17T03:30:49.154Z,692.28
2022-12-17T03:36:11.937Z,696.88
2022-12-17T03:41:35.292Z,696.17
2022-12-17T03:46:55.770Z,694.80
2022-12-17T03:52:16.297Z,697.58
2022-12-17T03:57:36.417Z,694.13
2022-12-17T04:02:56.913Z,695.58
2022-12-17T04:08:17.515Z,691.15
2022-12-17T04:13:41.057Z,696.50
2022-12-17T04:19:02.164Z,695.75
2022-12-17T04:24:22.395Z,683.92
2022-12-17T04:29:42.725Z,695.35
2022-12-17T04:35:03.060Z,688.70
2022-12-17T04:40:24.141Z,691.67
2022-12-17T04:45:44.371Z,695.33
2022-12-17T04:51:04.851Z,693.33
2022-12-17T04:56:24.923Z,691.20
2022-12-17T05:01:45.507Z,705.70
2022-12-17T05:07:06.038Z,693.15
2022-12-17T05:12:36.962Z,696.15
2022-12-17T05:17:57.273Z,696.65
2022-12-17T05:23:23.447Z,693.03
2022-12-17T05:28:43.573Z,692.75
2022-12-17T05:34:04.176Z,695.13
2022-12-17T05:39:24.605Z,692.78
2022-12-17T05:44:45.100Z,688.08
2022-12-17T05:50:05.581Z,702.65
2022-12-17T05:55:26.117Z,697.40
2022-12-17T06:00:46.494Z,701.55
2022-12-17T06:06:07.075Z,700.22
2022-12-17T06:11:27.197Z,698.25
2022-12-17T06:16:47.564Z,699.80
2022-12-17T06:22:07.959Z,701.03
2022-12-17T06:27:28.178Z,696.00
2022-12-17T06:32:48.516Z,691.67
2022-12-17T06:38:16.450Z,696.97
2022-12-17T06:43:36.928Z,695.42
2022-12-17T06:48:57.685Z,696.95
2022-12-17T06:54:18.173Z,695.97
2022-12-17T06:59:38.343Z,696.60
2022-12-17T07:04:58.596Z,699.53
2022-12-17T07:10:19.092Z,696.90
2022-12-17T07:15:39.703Z,695.13
2022-12-17T07:21:00.475Z,705.63
2022-12-17T07:26:21.069Z,702.55
2022-12-17T07:31:41.553Z,695.25
2022-12-17T07:37:01.963Z,697.92
2022-12-17T07:42:22.351Z,691.78
2022-12-17T07:47:42.963Z,700.00
2022-12-17T07:53:03.545Z,694.10
2022-12-17T07:58:25.810Z,695.03
2022-12-17T08:03:46.508Z,691.50
2022-12-17T08:09:06.616Z,702.90
2022-12-17T08:14:27.027Z,697.47
2022-12-17T08:19:47.404Z,695.72
2022-12-17T08:25:07.734Z,699.45
2022-12-17T08:30:28.243Z,699.58
2022-12-17T08:35:48.778Z,703.45
2022-12-17T08:41:09.163Z,699.45
2022-12-17T08:46:29.498Z,689.33
2022-12-17T08:51:49.969Z,693.88
2022-12-17T08:57:31.861Z,690.70
2022-12-17T09:02:52.752Z,689.70
2022-12-17T09:08:20.542Z,687.78
2022-12-17T09:13:41.013Z,685.80
2022-12-17T09:19:01.599Z,696.38
2022-12-17T09:24:21.951Z,710.50
2022-12-17T09:29:42.446Z,687.20
2022-12-17T09:35:02.666Z,701.60
2022-12-17T09:40:23.186Z,692.25
2022-12-17T09:45:50.183Z,699.83
2022-12-17T09:51:11.058Z,692.10
2022-12-17T09:56:32.448Z,696.58
2022-12-17T10:01:53.556Z,699.38
2022-12-17T10:07:14.174Z,706.53
2022-12-17T10:12:39.040Z,704.65
2022-12-17T10:17:59.593Z,692.58
2022-12-17T10:23:20.086Z,697.70
2022-12-17T10:28:43.682Z,696.30
2022-12-17T10:34:04.721Z,691.30
2022-12-17T10:39:25.645Z,740.60
2022-12-17T10:44:56.370Z,695.85
2022-12-17T10:50:17.964Z,691.60
2022-12-17T10:55:46.790Z,703.70
2022-12-17T11:01:07.884Z,689.88
2022-12-17T11:06:29.072Z,700.08
2022-12-17T11:11:49.693Z,692.65
2022-12-17T11:17:12.135Z,701.08
2022-12-17T11:22:52.749Z,697.70
2022-12-17T11:28:18.827Z,694.28
2022-12-17T11:33:46.464Z,701.08
2022-12-17T11:39:10.558Z,697.42
2022-12-17T11:44:34.136Z,696.00
2022-12-17T11:50:01.096Z,702.25
2022-12-17T11:55:44.388Z,691.60
2022-12-17T12:01:36.848Z,696.28
2022-12-17T12:07:16.199Z,697.60
2022-12-17T12:12:42.847Z,687.17
2022-12-17T12:18:13.031Z,688.67
2022-12-17T12:23:52.669Z,690.22
2022-12-17T12:29:18.915Z,685.60
2022-12-17T12:34:41.843Z,685.55
2022-12-17T12:40:19.232Z,691.53
2022-12-17T12:45:39.798Z,693.60
2022-12-17T12:51:19.415Z,684.35
2022-12-17T12:57:06.393Z,691.95
2022-12-17T13:02:43.016Z,688.67
2022-12-17T13:07:44.902Z,689.53
2022-12-17T13:12:47.191Z,697.55
2022-12-17T13:18:02.863Z,694.05
2022-12-17T13:23:14.359Z,692.88
2022-12-17T13:28:26.238Z,693.75
2022-12-17T13:33:46.806Z,687.15
2022-12-17T13:38:59.741Z,686.90
2022-12-17T13:44:02.769Z,688.72
2022-12-17T13:49:06.485Z,697.42
2022-12-17T13:54:15.072Z,689.85
2022-12-17T13:59:24.252Z,690.30
2022-12-17T14:04:27.782Z,691.97
2022-12-17T14:09:35.206Z,690.45
2022-12-17T14:14:41.184Z,688.35
2022-12-17T14:19:43.010Z,699.13
2022-12-17T14:24:45.521Z,697.38
2022-12-17T14:29:47.390Z,689.85
2022-12-17T14:34:49.140Z,698.35
2022-12-17T14:39:52.997Z,687.17
2022-12-17T14:44:57.758Z,694.15
2022-12-17T14:50:09.286Z,690.60
2022-12-17T14:55:30.764Z,695.50
2022-12-17T15:00:33.152Z,689.22
2022-12-17T15:05:35.034Z,698.40
2022-12-17T15:10:37.984Z,692.15
2022-12-17T15:15:40.167Z,682.88
2022-12-17T15:20:42.225Z,685.80
2022-12-17T15:25:47.073Z,687.38
2022-12-17T15:30:49.836Z,688.42
2022-12-17T15:35:51.778Z,695.17
2022-12-17T15:40:53.591Z,690.17
2022-12-17T15:46:00.517Z,691.92
2022-12-17T15:51:03.682Z,690.50
2022-12-17T15:56:05.581Z,690.78
2022-12-17T16:01:07.474Z,684.63
2022-12-17T16:06:09.290Z,688.25
2022-12-17T16:11:11.942Z,688.47
2022-12-17T16:16:13.766Z,682.53
2022-12-17T16:21:15.687Z,686.50
2022-12-17T16:26:17.391Z,668.00
2022-12-17T16:31:19.335Z,681.57
2022-12-17T16:36:21.750Z,683.17
2022-12-17T16:41:23.920Z,674.00
2022-12-17T16:46:28.382Z,689.40
2022-12-17T16:51:30.478Z,687.67
2022-12-17T16:56:38.026Z,701.63
2022-12-17T17:01:42.778Z,686.07
2022-12-17T17:06:46.709Z,691.40
2022-12-17T17:11:51.755Z,678.70
2022-12-17T17:16:54.150Z,682.13
2022-12-17T17:21:56.002Z,701.50
2022-12-17T17:26:57.757Z,690.93
2022-12-17T17:32:14.796Z,708.77
2022-12-17T17:37:16.999Z,698.70
2022-12-17T17:42:18.737Z,696.60
2022-12-17T17:47:20.519Z,721.47
2022-12-17T17:52:22.255Z,697.53
2022-12-17T17:57:24.069Z,702.37
2022-12-17T18:02:26.168Z,715.17
2022-12-17T18:07:28.485Z,664.03
2022-12-17T18:12:49.187Z,718.40
2022-12-17T18:17:51.490Z,676.80
2022-12-17T18:22:53.224Z,617.30
2022-12-17T18:27:55.042Z,179.15
2022-12-17T18:32:57.699Z,176.40
2022-12-17T18:38:00.233Z,164.85
2022-12-17T18:43:20.688Z,199.05
2022-12-17T18:48:22.533Z,174.07
2022-12-17T18:53:24.808Z,155.65
2022-12-17T18:58:26.496Z,177.15
2022-12-17T19:03:28.458Z,166.25
2022-12-17T19:08:30.323Z,153.23
2022-12-17T19:13:33.243Z,147.07
2022-12-17T19:18:35.379Z,159.40
2022-12-17T19:23:37.913Z,145.43
2022-12-17T19:28:42.920Z,108.43
2022-12-17T19:33:45.057Z,110.82
2022-12-17T19:38:47.131Z,96.07
2022-12-17T19:43:53.887Z,88.78
2022-12-17T19:48:57.427Z,92.32
2022-12-17T19:54:04.732Z,78.60
2022-12-17T19:59:10.982Z,122.53
2022-12-17T20:04:13.494Z,77.80
2022-12-17T20:09:17.521Z,65.47
2022-12-17T20:14:27.899Z,84.65
2022-12-17T20:19:33.567Z,62.55
2022-12-17T20:24:37.282Z,55.05
2022-12-17T20:29:39.231Z,70.05
2022-12-17T20:34:41.057Z,91.28
2022-12-17T20:39:42.912Z,70.63
2022-12-17T20:44:50.049Z,74.82
2022-12-17T20:49:54.953Z,48.83
2022-12-17T20:54:56.665Z,56.67
2022-12-17T20:59:58.352Z,68.25
2022-12-17T21:05:00.655Z,88.88
2022-12-17T21:10:02.442Z,61.25
2022-12-17T21:15:04.384Z,79.97
2022-12-17T21:20:09.780Z,57.67
2022-12-17T21:30:15.274Z,54.10
2022-12-17T21:35:17.840Z,69.45
2022-12-17T21:40:19.934Z,68.22
2022-12-17T21:45:21.656Z,63.60
2022-12-17T21:50:23.596Z,57.38
2022-12-17T21:55:25.480Z,75.38
2022-12-17T22:00:27.258Z,57.03
2022-12-17T22:05:29.307Z,58.33
2022-12-17T22:10:49.383Z,59.38
2022-12-17T22:15:53.042Z,66.22
2022-12-17T22:20:58.810Z,50.90
2022-12-17T22:26:00.682Z,63.40
2022-12-17T22:31:24.740Z,63.28
2022-12-17T22:39:00.848Z,66.72
2022-12-17T22:44:38.906Z,63.85
2022-12-17T22:47:33.116Z,62.45
2022-12-17T22:52:34.832Z,67.60
2022-12-17T22:57:38.384Z,56.10
2022-12-17T23:02:40.760Z,70.07
2022-12-17T23:07:42.784Z,61.08
2022-12-17T23:12:50.831Z,74.07
2022-12-17T23:17:54.186Z,53.70
2022-12-17T23:22:56.662Z,59.67
2022-12-17T23:27:58.633Z,62.30
2022-12-17T23:33:00.368Z,68.75
2022-12-17T23:38:02.129Z,60.75
2022-12-17T23:43:03.857Z,66.55
2022-12-17T23:48:07.879Z,63.47
2022-12-17T23:53:09.619Z,61.97
2022-12-17T23:58:11.365Z,63.25
